Terminal Aerodrome Forecast
Issued by NWS

Home | Current Version | Previous Version | Text Only | Print | Product List | Glossary On
Versions: 1 2 3 4 5 6 7 8 9 10 11 12 13 14 15 16 17 18
000
FTUS44 KTSA 311300 AAA
TAFRVS
TAF AMD
KRVS 311309Z 3113/0112 07004KT 2SM -DZ BR BKN006 OVC012
     FM311500 09005KT P6SM BKN015
     FM312200 11006KT P6SM BKN050
     FM010200 VRB03KT P6SM BKN250
     FM010900 00000KT 3SM BR SCT010=

USA.gov is the U.S. government's official web portal to all federal, state and local government web resources and services.